Aeroporto :
LOGIN :

Iscrizione | Disclaimer

   EN    FR    IT 

 










Sommario :    VFR   VFR Marginale   IFR   IFR Intensivo   IFR Molto Intensivo
Visibilità : 
Base nubi : 
>= 8 km
>= 3000ft
5 / 8 km
1000 / 3000 ft
1500m / 5 km
500 / 1000 ft
800 / 1500m
200 / 500 ft
< 800m
< 200 ft
Simboli :   Temporali  Nebbia  Neve Forte  Precipitazioni Forti  Vento > 20 kt
SIGMETs :   Varie  Temporali  Ghiacco  Turbolenza  Onda orograficha  Ceneri Vulcaniche







- Altitudine del aeroporto : 1079 ft


ETIK - Illesheim Air Base

ULTIMO METAR :
  • 221956Z AUTO 25003KT 9999 CLR 20/10 A3024 RMK AO2 SLP229 T01990103 $

METARs OBSOLETI :
  • 221856Z AUTO 00000KT 9999 CLR 26/09 A3022 RMK AO2 SLP221 T02630087 $
  • 221756Z AUTO 34005KT 9999 CLR 28/09 A3022 RMK AO2 SLP222 T02840086 10300 20284 55003 $

TAF TAF ETIK
Valido dal 22 a 14 ore il 23 a 20 ore UTC


221409Z 2214/2320 30006KT 9999 FEW170 QNH3022INS
BECMG 2222/2223 VRB06KT 9999 SKC QNH3012INS TX30/2214Z TN15/2304Z
Nessun NOTAM noto per questo aeroporto.



MetMap, La meteo Aeronautica in un colpo d'occhio ! - Copyright ORBIFLY Dicembre 2007 - Disclaimer

ORBIFLY MET'MAP TEAM :

Programmazione e sviluppo : Alexandra Zaïnal
Concezione e sviluppo : Baudouin d'Aumeries
Co-Programmazione e sviluppo : Marc-Olivier Méhu
Supporto tecnico e logistico : Manuel Goepfert
Aiuto per la traduzione : Arnaldo La Scala

Contatto : metmap@orbifly.com




FONTI E CREDITI :

   NOAA